Time;durP1;ratioP1;P1;durP2;ratioP2;P2;SDS_P1;SDS_P2;PMS_P1;PMS_P2;Temp;Humidity;BMP_temperature;BMP_pressure;BME280_temperature;BME280_humidity;BME280_pressure;Samples;Min_cycle;Max_cycle;Signal;HPM_P1;HPM_P2
2023/09/15 00:00:40;;;;;;;2.67;2.47;;;21.90;54.10;22.70;101203.00;;;;5011123;28;20222;-48
2023/09/15 00:03:06;;;;;;;4.33;2.40;;;21.80;53.80;22.70;101201.00;;;;5009821;28;20219;-48
2023/09/15 00:05:33;;;;;;;2.90;2.60;;;21.70;55.70;22.70;101205.00;;;;5009713;28;20210;-48
2023/09/15 00:08:00;;;;;;;4.83;3.00;;;21.60;54.50;22.60;101209.00;;;;5009721;28;20194;-47
2023/09/15 00:10:29;;;;;;;3.13;2.83;;;21.10;55.50;22.50;101209.00;;;;5008492;28;20238;-52
2023/09/15 00:12:54;;;;;;;3.20;2.83;;;20.80;56.40;22.40;101219.00;;;;5005183;28;20742;-48
2023/09/15 00:15:20;;;;;;;4.53;2.53;;;20.90;56.40;22.40;101199.00;;;;5012731;28;20183;-48
2023/09/15 00:17:46;;;;;;;3.00;2.70;;;20.90;56.60;22.30;101211.00;;;;5010441;28;20183;-48
2023/09/15 00:20:16;;;;;;;3.07;2.53;;;21.10;56.60;22.30;101216.00;;;;5008149;28;20203;-47
2023/09/15 00:22:49;;;;;;;2.90;2.60;;;21.30;55.60;22.30;101204.00;;;;5009676;28;20191;-47
2023/09/15 00:25:26;;;;;;;2.67;2.47;;;21.40;56.00;22.30;101200.00;;;;5009426;28;20187;-48
2023/09/15 00:27:57;;;;;;;2.73;2.50;;;21.20;55.20;22.30;101203.00;;;;5008990;28;20769;-49
2023/09/15 00:30:24;;;;;;;2.80;2.53;;;21.30;55.70;22.30;101204.00;;;;5007880;28;20207;-48
2023/09/15 00:32:50;;;;;;;3.17;2.70;;;21.40;56.10;22.30;101209.00;;;;5009071;28;20183;-48
2023/09/15 00:35:16;;;;;;;3.83;2.63;;;21.60;55.30;22.30;101211.00;;;;5008708;28;20709;-48
2023/09/15 00:37:43;;;;;;;3.67;2.57;;;21.70;55.30;22.30;101198.00;;;;5008951;28;20276;-48
2023/09/15 00:40:10;;;;;;;2.73;2.47;;;21.80;55.20;22.40;101205.00;;;;5006598;28;20404;-48
2023/09/15 00:42:37;;;;;;;3.80;2.40;;;21.80;55.20;22.40;101211.00;;;;5014719;28;20522;-48
2023/09/15 00:45:06;;;;;;;2.63;2.43;;;21.90;55.10;22.40;101207.00;;;;5007931;28;20186;-49
2023/09/15 00:47:36;;;;;;;3.00;2.40;;;21.90;55.20;22.40;101209.00;;;;5008283;28;20203;-48
2023/09/15 00:50:05;;;;;;;2.87;2.63;;;21.90;55.00;22.40;101196.00;;;;4992755;28;20419;-48
2023/09/15 00:52:33;;;;;;;2.90;2.70;;;21.90;55.10;22.40;101201.00;;;;5010348;28;20558;-48
2023/09/15 00:54:59;;;;;;;2.50;2.30;;;22.00;55.10;22.40;101195.00;;;;4991605;28;20191;-48
2023/09/15 00:57:25;;;;;;;2.50;2.30;;;22.00;55.80;22.40;101199.00;;;;4992356;28;20237;-48
2023/09/15 00:59:51;;;;;;;2.80;2.30;;;21.90;54.90;22.40;101195.00;;;;5008628;28;20207;-48
2023/09/15 01:02:17;;;;;;;2.67;2.40;;;21.90;54.80;22.40;101191.00;;;;5007923;28;20202;-48
2023/09/15 01:04:43;;;;;;;2.87;2.50;;;22.00;55.10;22.40;101192.00;;;;5008900;28;20183;-48
2023/09/15 01:07:09;;;;;;;3.70;2.60;;;21.90;55.20;22.40;101190.00;;;;5007531;28;20270;-49
2023/09/15 01:09:35;;;;;;;4.00;2.37;;;21.90;55.10;22.40;101188.00;;;;4991028;28;20200;-48
2023/09/15 01:12:01;;;;;;;2.87;2.57;;;21.90;54.90;22.40;101186.00;;;;5008591;28;20179;-48
2023/09/15 01:14:27;;;;;;;2.70;2.50;;;21.90;54.80;22.40;101182.00;;;;5006261;28;20223;-48
2023/09/15 01:17:12;;;;;;;2.70;2.50;;;21.90;55.00;22.40;101173.00;;;;5008645;28;20214;-48
2023/09/15 01:20:13;;;;;;;3.57;2.40;;;21.90;55.10;22.40;101164.00;;;;5007302;28;20219;-49
2023/09/15 01:22:54;;;;;;;2.40;2.20;;;21.90;54.90;22.30;101168.00;;;;5007244;28;20198;-48
2023/09/15 01:25:39;;;;;;;4.50;2.50;;;21.90;54.90;22.30;101173.00;;;;4992095;28;20261;-48
2023/09/15 01:28:19;;;;;;;2.67;2.47;;;21.90;54.40;22.30;101175.00;;;;5008545;28;20609;-47
2023/09/15 01:30:46;;;;;;;2.97;2.60;;;21.90;54.80;22.20;101171.00;;;;5007316;28;20831;-48
2023/09/15 01:33:13;;;;;;;2.93;2.60;;;21.90;54.80;22.30;101172.00;;;;5008526;28;20183;-48
2023/09/15 01:35:39;;;;;;;2.73;2.53;;;21.90;54.80;22.30;101162.00;;;;5007357;28;20180;-47
2023/09/15 01:38:04;;;;;;;3.63;2.57;;;21.90;54.80;22.30;101168.00;;;;5008180;28;20329;-47
2023/09/15 01:40:31;;;;;;;2.63;2.43;;;21.70;54.20;22.20;101165.00;;;;5008466;28;20226;-48
2023/09/15 01:42:57;;;;;;;2.70;2.40;;;21.70;55.00;22.20;101166.00;;;;5008106;28;20233;-48
2023/09/15 01:45:22;;;;;;;2.70;2.50;;;21.80;55.00;22.20;101156.00;;;;5009072;28;20262;-48
2023/09/15 01:47:48;;;;;;;2.97;2.50;;;21.80;54.90;22.00;101157.00;;;;5008366;28;20211;-49
2023/09/15 01:50:15;;;;;;;3.50;2.60;;;21.70;55.00;22.20;101159.00;;;;4974144;28;20250;-48
2023/09/15 01:52:41;;;;;;;2.67;2.47;;;21.80;55.00;22.20;101168.00;;;;4974232;28;20202;-48
2023/09/15 01:55:07;;;;;;;2.80;2.60;;;21.80;54.80;22.20;101173.00;;;;4990989;28;20409;-49
2023/09/15 01:57:33;;;;;;;2.70;2.50;;;21.80;54.80;22.20;101172.00;;;;5007811;28;20179;-48
2023/09/15 01:59:59;;;;;;;2.50;2.30;;;21.80;54.80;22.20;101167.00;;;;5008401;28;20870;-48
2023/09/15 02:02:24;;;;;;;2.60;2.40;;;21.70;55.00;22.10;101168.00;;;;4990266;28;20179;-48
2023/09/15 02:04:50;;;;;;;2.80;2.43;;;21.70;55.20;22.10;101172.00;;;;5008310;28;20192;-47
2023/09/15 02:07:16;;;;;;;3.73;2.70;;;21.70;54.80;22.10;101167.00;;;;5008126;28;20269;-48
2023/09/15 02:09:42;;;;;;;2.63;2.40;;;21.50;54.80;22.10;101164.00;;;;5008170;28;20195;-47
2023/09/15 02:12:07;;;;;;;3.63;2.40;;;21.40;55.00;22.10;101164.00;;;;5007950;28;20751;-47
2023/09/15 02:14:34;;;;;;;3.20;2.50;;;21.40;55.30;22.00;101170.00;;;;5008365;28;20174;-48
2023/09/15 02:17:00;;;;;;;3.10;2.70;;;21.40;55.70;22.00;101169.00;;;;5008030;28;20210;-48
2023/09/15 02:19:26;;;;;;;3.97;2.70;;;21.20;55.50;22.00;101167.00;;;;5008054;28;20219;-48
2023/09/15 02:21:52;;;;;;;5.10;2.53;;;21.30;55.20;22.00;101167.00;;;;5007874;28;20246;-48
2023/09/15 02:24:18;;;;;;;2.70;2.50;;;21.30;55.60;21.90;101140.00;;;;5008227;28;20183;-48
2023/09/15 02:26:44;;;;;;;3.43;2.30;;;21.20;55.20;21.90;101163.00;;;;5010256;28;20318;-47
2023/09/15 02:29:09;;;;;;;4.00;2.30;;;21.20;55.50;21.90;101160.00;;;;5011505;28;20570;-48
2023/09/15 02:31:35;;;;;;;2.60;2.40;;;21.10;55.40;21.90;101156.00;;;;5011717;28;20203;-47
2023/09/15 02:34:01;;;;;;;3.00;2.70;;;20.90;55.40;21.90;101161.00;;;;5011458;28;20265;-47
2023/09/15 02:36:27;;;;;;;2.50;2.30;;;21.20;55.80;21.80;101155.00;;;;5011034;28;20191;-47
2023/09/15 02:38:56;;;;;;;3.63;2.40;;;21.20;55.50;21.80;101151.00;;;;5029372;28;20239;-47
2023/09/15 02:41:22;;;;;;;2.60;2.40;;;21.30;55.60;21.80;101150.00;;;;5014021;28;20187;-46
2023/09/15 02:43:47;;;;;;;2.73;2.10;;;21.30;55.10;21.70;101144.00;;;;5012367;28;20198;-48
2023/09/15 02:46:13;;;;;;;2.67;2.47;;;21.30;55.30;21.80;101138.00;;;;5011605;28;20518;-49
2023/09/15 02:48:41;;;;;;;4.73;2.60;;;21.30;55.10;21.80;101142.00;;;;5012080;28;20701;-48
2023/09/15 02:51:07;;;;;;;11.77;2.90;;;21.30;54.80;21.80;101146.00;;;;5014850;28;20207;-48
2023/09/15 02:53:33;;;;;;;5.90;2.60;;;21.30;55.20;21.80;101146.00;;;;5026148;28;20242;-48
2023/09/15 02:56:00;;;;;;;4.33;2.63;;;21.30;54.80;21.70;101127.00;;;;5012319;28;20253;-47
2023/09/15 02:58:27;;;;;;;3.43;2.50;;;21.30;55.10;21.70;101135.00;;;;5010436;28;20194;-47
2023/09/15 03:00:53;;;;;;;4.00;2.40;;;21.30;55.10;21.70;101125.00;;;;5010545;28;20710;-51
2023/09/15 03:03:20;;;;;;;5.87;2.60;;;21.30;54.80;21.70;101135.00;;;;5010797;28;20186;-47
2023/09/15 03:05:46;;;;;;;3.07;2.37;;;21.30;55.10;21.70;101132.00;;;;5011822;28;20179;-47
2023/09/15 03:08:13;;;;;;;3.77;2.50;;;21.30;55.10;21.70;101119.00;;;;5011996;28;20179;-47
2023/09/15 03:10:38;;;;;;;4.20;2.60;;;21.20;55.10;21.70;101123.00;;;;5011233;28;20194;-49
2023/09/15 03:13:05;;;;;;;2.70;2.40;;;21.20;55.10;21.60;101122.00;;;;5011191;28;20183;-48
2023/09/15 03:15:32;;;;;;;4.60;2.20;;;21.20;55.00;21.70;101095.00;;;;5011827;28;20172;-48
2023/09/15 03:17:58;;;;;;;3.10;2.60;;;21.20;55.30;21.60;101133.00;;;;4994007;28;20203;-48
2023/09/15 03:20:24;;;;;;;3.10;2.50;;;21.20;55.10;21.60;101132.00;;;;5011825;28;20199;-48
2023/09/15 03:22:50;;;;;;;4.83;2.90;;;20.90;54.50;21.60;101122.00;;;;5011081;28;20233;-48
2023/09/15 03:25:17;;;;;;;3.37;2.60;;;20.50;55.60;21.50;101116.00;;;;5011791;28;20179;-48
2023/09/15 03:27:43;;;;;;;2.70;2.50;;;20.60;56.10;21.50;101115.00;;;;5010785;28;20903;-46
2023/09/15 03:30:10;;;;;;;2.73;2.50;;;20.30;56.60;21.40;101118.00;;;;5010571;28;20222;-48
2023/09/15 03:32:35;;;;;;;3.10;2.30;;;20.40;56.30;21.40;101114.00;;;;5009731;28;20692;-48
2023/09/15 03:35:02;;;;;;;4.27;2.67;;;20.40;56.00;21.40;101107.00;;;;5009699;28;20211;-47
2023/09/15 03:37:27;;;;;;;3.67;2.43;;;20.30;56.20;21.30;101113.00;;;;5010626;28;20210;-47
2023/09/15 03:39:53;;;;;;;5.47;2.90;;;20.50;56.40;21.30;101099.00;;;;5011561;28;20254;-46
2023/09/15 03:42:19;;;;;;;3.87;2.53;;;20.60;56.10;21.30;101095.00;;;;5008613;28;20183;-48
2023/09/15 03:44:45;;;;;;;5.50;2.47;;;20.70;56.30;21.30;101096.00;;;;5006124;28;20186;-47
2023/09/15 03:47:10;;;;;;;3.23;2.37;;;20.70;56.00;21.30;101096.00;;;;4992395;28;20238;-49
2023/09/15 03:49:36;;;;;;;4.47;3.40;;;20.80;56.00;21.30;101089.00;;;;5010434;28;20206;-47
2023/09/15 03:52:02;;;;;;;4.43;2.73;;;20.80;55.60;21.30;101095.00;;;;5010447;28;20171;-47
2023/09/15 03:54:28;;;;;;;5.90;2.83;;;20.80;55.80;21.30;101099.00;;;;5011887;28;20187;-48
2023/09/15 03:56:54;;;;;;;3.10;2.60;;;20.80;55.70;21.30;101099.00;;;;5013242;28;20188;-48
2023/09/15 03:59:20;;;;;;;4.40;2.40;;;20.90;55.40;21.30;101095.00;;;;5011646;28;20246;-47
2023/09/15 04:01:49;;;;;;;3.53;2.30;;;20.90;55.60;21.30;101092.00;;;;5009038;28;20184;-47
2023/09/15 04:04:15;;;;;;;4.33;2.53;;;20.90;55.60;21.30;101095.00;;;;5010766;28;20187;-47
2023/09/15 04:06:41;;;;;;;6.10;2.60;;;20.80;55.70;21.30;101103.00;;;;5010384;28;20196;-48
2023/09/15 04:09:13;;;;;;;3.33;2.50;;;20.80;55.50;21.30;101100.00;;;;5010415;28;20195;-47
2023/09/15 04:11:40;;;;;;;3.73;2.50;;;20.80;55.20;21.30;101103.00;;;;5010239;28;20171;-47
2023/09/15 04:14:06;;;;;;;4.70;2.43;;;20.80;55.70;21.30;101107.00;;;;5009877;28;20708;-47
2023/09/15 04:16:32;;;;;;;3.07;2.60;;;20.80;55.80;21.20;101109.00;;;;5009878;28;20176;-47
2023/09/15 04:18:58;;;;;;;5.43;2.50;;;20.80;55.60;21.20;101109.00;;;;5010054;28;20243;-47
2023/09/15 04:21:24;;;;;;;4.97;2.60;;;20.60;55.80;21.20;101111.00;;;;5010429;28;20187;-50
2023/09/15 04:23:51;;;;;;;3.17;2.47;;;20.50;55.70;21.20;101112.00;;;;4991295;28;20275;-48
2023/09/15 04:26:17;;;;;;;4.23;2.47;;;20.40;56.30;21.20;101106.00;;;;5008960;28;20209;-48
2023/09/15 04:28:42;;;;;;;6.70;2.40;;;20.50;56.40;21.20;101100.00;;;;5009177;28;20261;-48
2023/09/15 04:31:08;;;;;;;5.93;2.50;;;20.60;56.30;21.20;101102.00;;;;5010044;28;20180;-48
2023/09/15 04:33:34;;;;;;;4.87;2.43;;;20.60;55.80;21.10;101103.00;;;;5009789;28;20214;-57
2023/09/15 04:36:00;;;;;;;4.40;2.60;;;20.60;55.70;21.10;101108.00;;;;5018929;28;20180;-48
2023/09/15 04:38:25;;;;;;;8.93;2.50;;;20.50;55.60;21.10;101108.00;;;;5021352;28;20789;-47
2023/09/15 04:40:52;;;;;;;5.53;2.60;;;20.20;56.30;21.10;101103.00;;;;5008917;28;20178;-47
2023/09/15 04:43:18;;;;;;;6.57;2.80;;;20.10;56.80;21.00;101105.00;;;;5005384;28;20183;-46
2023/09/15 04:45:44;;;;;;;3.17;2.60;;;20.20;56.30;21.00;101110.00;;;;5009959;28;20481;-47
2023/09/15 04:48:10;;;;;;;4.47;2.67;;;20.20;56.40;21.00;101107.00;;;;5009103;28;20179;-46
2023/09/15 04:50:38;;;;;;;4.20;2.47;;;20.20;56.90;21.00;101103.00;;;;5019999;28;20219;-52
2023/09/15 04:53:06;;;;;;;3.93;2.70;;;20.20;56.50;21.00;101106.00;;;;5015643;28;20185;-47
2023/09/15 04:55:33;;;;;;;3.87;2.80;;;20.10;56.40;20.90;101107.00;;;;5010486;28;20195;-48
2023/09/15 04:57:59;;;;;;;4.20;2.57;;;20.10;56.50;20.90;101104.00;;;;5009550;28;20713;-47
2023/09/15 05:00:26;;;;;;;3.70;2.40;;;20.10;57.00;20.90;101096.00;;;;5008788;28;20284;-47
2023/09/15 05:02:51;;;;;;;8.10;2.80;;;20.10;56.50;20.90;101111.00;;;;5009156;28;20581;-50
2023/09/15 05:05:17;;;;;;;3.53;2.60;;;19.90;56.60;20.90;101105.00;;;;5009210;28;20197;-47
2023/09/15 05:07:43;;;;;;;4.33;2.57;;;19.90;56.60;20.90;101113.00;;;;5008530;28;20252;-47
2023/09/15 05:10:09;;;;;;;4.07;2.53;;;19.90;56.90;20.80;101112.00;;;;5009293;28;20219;-47
2023/09/15 05:12:35;;;;;;;4.37;2.50;;;19.80;57.30;20.80;101106.00;;;;5009614;28;20179;-47
2023/09/15 05:15:03;;;;;;;4.20;2.50;;;19.80;57.00;20.80;101118.00;;;;5009270;28;20545;-47
2023/09/15 05:17:28;;;;;;;4.00;2.93;;;20.00;57.10;20.70;101116.00;;;;5008468;28;20612;-48
2023/09/15 05:19:56;;;;;;;4.40;2.60;;;20.00;56.70;20.80;101110.00;;;;5009610;28;20214;-47
2023/09/15 05:22:22;;;;;;;3.57;2.50;;;20.00;56.60;20.80;101116.00;;;;5009398;28;20201;-47
2023/09/15 05:24:48;;;;;;;2.80;2.60;;;20.00;56.40;20.80;101117.00;;;;5009333;28;20215;-47
2023/09/15 05:27:13;;;;;;;5.80;2.77;;;20.10;56.40;20.80;101117.00;;;;5009302;28;20245;-47
2023/09/15 05:29:39;;;;;;;4.33;2.67;;;20.10;56.50;20.80;101126.00;;;;5009495;28;20288;-47
2023/09/15 05:32:05;;;;;;;3.30;2.37;;;20.10;56.60;20.70;101125.00;;;;5009267;28;20329;-47
2023/09/15 05:34:31;;;;;;;3.80;2.50;;;19.80;56.60;20.50;101120.00;;;;5008580;28;20759;-47
2023/09/15 05:36:57;;;;;;;3.27;2.37;;;20.00;56.80;20.70;101127.00;;;;5009224;28;20196;-47
2023/09/15 05:39:22;;;;;;;3.70;2.50;;;19.80;57.00;20.70;101138.00;;;;5008060;28;20207;-48
2023/09/15 05:41:48;;;;;;;2.57;2.37;;;20.00;56.70;20.70;101116.00;;;;5008426;28;20193;-46
2023/09/15 05:44:16;;;;;;;4.80;2.53;;;19.80;56.70;20.60;101130.00;;;;5008474;28;20265;-46
2023/09/15 05:46:42;;;;;;;2.70;2.40;;;19.50;57.40;20.60;101124.00;;;;5008879;28;20562;-47
2023/09/15 05:49:08;;;;;;;2.87;2.30;;;19.70;57.60;20.60;101125.00;;;;4991365;28;20553;-47
2023/09/15 05:51:34;;;;;;;3.13;2.57;;;19.90;57.10;20.60;101121.00;;;;5007893;28;20189;-47
2023/09/15 05:54:00;;;;;;;3.00;2.60;;;19.90;56.70;20.60;101121.00;;;;5008740;28;20190;-47
2023/09/15 05:56:25;;;;;;;3.47;2.50;;;19.70;56.60;20.60;101125.00;;;;5009280;28;20221;-48
2023/09/15 05:58:51;;;;;;;3.67;2.63;;;19.70;57.10;20.50;101129.00;;;;5008471;28;20790;-48
2023/09/15 06:01:20;;;;;;;2.70;2.50;;;19.90;57.20;20.50;101123.00;;;;5011988;28;20191;-48
2023/09/15 06:03:47;;;;;;;4.07;2.40;;;19.80;57.00;20.50;101121.00;;;;5012861;28;20189;-47
2023/09/15 06:06:13;;;;;;;3.07;2.43;;;19.80;56.90;20.50;101119.00;;;;5012596;28;20207;-47
2023/09/15 06:08:38;;;;;;;4.63;2.60;;;19.90;57.00;20.50;101123.00;;;;5012539;28;20214;-47
2023/09/15 06:11:06;;;;;;;4.23;2.70;;;19.90;56.70;20.50;101118.00;;;;5013131;28;20186;-47
2023/09/15 06:13:33;;;;;;;2.80;2.50;;;20.00;56.70;20.50;101119.00;;;;5012499;28;20181;-47
2023/09/15 06:15:59;;;;;;;2.83;2.40;;;20.00;56.80;20.60;101124.00;;;;5012012;28;20180;-47
2023/09/15 06:18:25;;;;;;;3.17;2.40;;;20.00;56.70;20.60;101122.00;;;;5013226;28;20568;-47
2023/09/15 06:20:55;;;;;;;4.37;2.80;;;20.00;56.90;20.50;101120.00;;;;5013044;28;20184;-47
2023/09/15 06:23:21;;;;;;;3.80;2.60;;;20.00;57.00;20.60;101117.00;;;;5011400;28;20246;-47
2023/09/15 06:25:46;;;;;;;2.80;2.40;;;19.90;57.10;20.60;101126.00;;;;5012665;28;20178;-49
2023/09/15 06:28:12;;;;;;;3.00;2.20;;;20.00;57.20;20.60;101117.00;;;;5012290;28;20179;-47
2023/09/15 06:30:38;;;;;;;3.00;2.70;;;20.00;57.10;20.60;101121.00;;;;5012543;28;20221;-47
2023/09/15 06:33:04;;;;;;;3.27;2.60;;;19.80;57.40;20.60;101119.00;;;;5012454;28;20179;-56
2023/09/15 06:35:29;;;;;;;2.73;2.30;;;19.80;57.50;20.50;101120.00;;;;5026224;28;20293;-47
2023/09/15 06:37:55;;;;;;;2.50;2.30;;;19.80;57.90;20.50;101110.00;;;;5016614;28;20178;-47
2023/09/15 06:40:21;;;;;;;4.00;2.53;;;19.90;57.70;20.50;101107.00;;;;5011823;28;20200;-48
2023/09/15 06:42:47;;;;;;;5.33;2.57;;;19.70;58.10;20.50;101122.00;;;;5011893;28;20197;-47
2023/09/15 06:45:12;;;;;;;3.13;2.53;;;19.80;58.10;20.50;101107.00;;;;5011662;28;20191;-46
2023/09/15 06:47:38;;;;;;;3.43;2.70;;;19.80;58.20;20.50;101110.00;;;;5013007;28;20206;-52
2023/09/15 06:50:05;;;;;;;4.37;2.33;;;19.60;58.50;20.50;101100.00;;;;5025343;28;20257;-48
2023/09/15 06:52:31;;;;;;;3.17;2.37;;;19.60;58.50;20.50;101104.00;;;;5015084;28;20190;-48
2023/09/15 06:54:57;;;;;;;7.83;3.00;;;19.50;58.90;20.50;101102.00;;;;5013366;28;20242;-48
2023/09/15 06:57:23;;;;;;;8.60;3.00;;;19.60;59.10;20.40;101096.00;;;;5012700;28;20213;-47
2023/09/15 06:59:49;;;;;;;3.43;2.50;;;19.60;59.20;20.40;101094.00;;;;5012270;28;20196;-48
2023/09/15 07:02:15;;;;;;;3.60;2.70;;;19.60;59.50;20.40;101090.00;;;;5011632;28;20182;-46
2023/09/15 07:04:43;;;;;;;3.43;2.60;;;19.70;59.40;20.40;101094.00;;;;5011332;28;20194;-47
2023/09/15 07:07:09;;;;;;;3.77;2.60;;;19.60;59.30;20.40;101094.00;;;;5011137;28;20655;-47
2023/09/15 07:09:35;;;;;;;3.67;2.57;;;19.70;59.10;20.40;101101.00;;;;5005533;28;20192;-47
2023/09/15 07:12:01;;;;;;;3.47;2.80;;;19.70;59.30;20.40;101088.00;;;;5009565;28;20272;-46
2023/09/15 07:14:27;;;;;;;5.30;2.90;;;19.80;59.40;20.40;101102.00;;;;5010584;28;20720;-46
2023/09/15 07:16:53;;;;;;;4.77;2.83;;;19.80;59.60;20.40;101092.00;;;;5011192;28;20233;-46
2023/09/15 07:19:18;;;;;;;6.13;2.67;;;19.70;60.10;20.40;101090.00;;;;5011128;28;20212;-47
2023/09/15 07:21:44;;;;;;;3.40;2.80;;;19.70;59.70;20.40;101095.00;;;;5010835;28;20192;-47
2023/09/15 07:24:10;;;;;;;4.03;2.90;;;19.70;59.30;20.40;101093.00;;;;5010504;28;20191;-47
2023/09/15 07:26:36;;;;;;;3.70;2.77;;;19.80;59.60;20.40;101092.00;;;;5009869;28;20336;-47
2023/09/15 07:29:03;;;;;;;3.27;2.40;;;19.80;59.80;20.40;101096.00;;;;5010830;28;20782;-47
2023/09/15 07:31:35;;;;;;;2.60;2.40;;;19.80;59.50;20.40;101093.00;;;;5010820;28;20186;-47
2023/09/15 07:34:01;;;;;;;3.23;2.37;;;19.80;59.30;20.40;101092.00;;;;5010496;28;20709;-47
2023/09/15 07:36:26;;;;;;;2.90;2.60;;;19.80;59.70;19.90;101084.00;;;;5010588;28;20188;-47
2023/09/15 07:38:53;;;;;;;3.47;2.57;;;19.80;60.00;20.40;101078.00;;;;5014938;28;20202;-47
2023/09/15 07:41:19;;;;;;;2.60;2.40;;;19.80;60.30;20.40;101089.00;;;;5015782;28;20205;-53
2023/09/15 07:43:45;;;;;;;5.10;2.83;;;19.70;59.40;20.40;101078.00;;;;5013107;28;20183;-46
2023/09/15 07:46:13;;;;;;;2.80;2.30;;;19.70;60.00;20.40;101078.00;;;;5015270;28;20217;-47
2023/09/15 07:48:40;;;;;;;5.17;2.40;;;19.80;59.80;20.40;101069.00;;;;5006304;28;22024;-47
2023/09/15 07:51:06;;;;;;;3.07;2.40;;;19.80;60.40;20.40;101078.00;;;;5009071;28;20175;-47
2023/09/15 07:53:32;;;;;;;3.27;2.40;;;19.80;59.80;20.40;101071.00;;;;4989877;28;20266;-47
2023/09/15 07:55:58;;;;;;;3.03;2.67;;;19.70;60.90;20.40;101080.00;;;;5009877;28;20768;-47
2023/09/15 07:58:24;;;;;;;3.83;2.60;;;19.70;60.90;20.40;101071.00;;;;5009297;28;20168;-49
2023/09/15 08:00:49;;;;;;;2.90;2.40;;;19.70;60.40;20.40;101075.00;;;;4993044;28;20183;-47
2023/09/15 08:03:15;;;;;;;2.80;2.50;;;19.70;60.10;20.40;101072.00;;;;5011195;28;20244;-48
2023/09/15 08:05:41;;;;;;;2.60;2.40;;;19.70;60.00;20.40;101066.00;;;;5005815;28;20184;-48
2023/09/15 08:08:07;;;;;;;2.53;2.33;;;19.70;60.50;20.30;101058.00;;;;5010517;28;20208;-46
2023/09/15 08:10:32;;;;;;;5.57;2.57;;;19.70;60.80;20.30;101065.00;;;;5011127;28;20262;-48
2023/09/15 08:12:58;;;;;;;5.33;3.00;;;19.70;60.70;20.30;101069.00;;;;5010501;28;20175;-48
2023/09/15 08:15:24;;;;;;;7.70;3.00;;;19.70;62.30;20.40;101072.00;;;;5010773;28;20275;-48
2023/09/15 08:17:50;;;;;;;6.10;2.53;;;19.50;62.60;20.30;101068.00;;;;5010494;28;20199;-48
2023/09/15 08:20:16;;;;;;;7.60;2.87;;;19.60;62.00;20.30;101063.00;;;;5010368;28;20254;-47
2023/09/15 08:22:42;;;;;;;16.20;3.87;;;19.60;62.30;20.30;101060.00;;;;5009980;28;20269;-47
2023/09/15 08:25:10;;;;;;;14.27;3.43;;;19.70;61.90;20.30;101069.00;;;;5010246;28;20607;-48
2023/09/15 08:27:39;;;;;;;7.40;2.90;;;19.70;62.40;20.40;101063.00;;;;5009683;28;20293;-48
2023/09/15 08:30:10;;;;;;;3.00;2.70;;;19.70;62.50;20.40;101059.00;;;;5009612;28;20724;-48
2023/09/15 08:32:35;;;;;;;6.37;2.40;;;19.70;62.20;20.40;101064.00;;;;5010346;28;20316;-47
2023/09/15 08:35:03;;;;;;;7.27;2.90;;;19.70;63.10;20.30;101062.00;;;;5019767;28;20189;-53
2023/09/15 08:37:28;;;;;;;9.63;2.87;;;19.70;63.70;20.30;101058.00;;;;5016878;28;20196;-48
2023/09/15 08:39:54;;;;;;;4.03;2.70;;;19.70;63.70;20.30;101059.00;;;;5010420;28;20214;-48
2023/09/15 08:42:27;;;;;;;6.97;3.10;;;19.60;64.00;20.30;101056.00;;;;5010944;28;20213;-48
2023/09/15 08:44:53;;;;;;;4.47;2.70;;;19.60;63.50;20.30;101060.00;;;;5010201;28;20185;-51
2023/09/15 08:47:22;;;;;;;3.87;2.50;;;19.70;63.10;20.40;101057.00;;;;5010875;28;20218;-48
2023/09/15 08:49:48;;;;;;;5.10;2.80;;;19.70;62.70;20.40;101031.00;;;;5018886;28;20205;-48
2023/09/15 08:52:20;;;;;;;3.70;2.57;;;19.70;63.20;20.40;101059.00;;;;4981590;28;20173;-47
2023/09/15 08:54:46;;;;;;;5.73;2.53;;;19.70;63.20;20.40;101059.00;;;;5009503;28;20254;-47
2023/09/15 08:57:12;;;;;;;3.40;2.20;;;19.80;63.10;20.40;101058.00;;;;4992202;28;20285;-47
2023/09/15 08:59:38;;;;;;;4.83;2.60;;;19.80;63.10;20.40;101052.00;;;;5008285;28;20204;-47
2023/09/15 09:02:04;;;;;;;4.13;2.70;;;19.80;63.00;20.50;101056.00;;;;5008530;28;20198;-48
2023/09/15 09:04:30;;;;;;;3.13;2.40;;;19.70;64.50;20.20;101057.00;;;;5009385;28;20215;-47
2023/09/15 09:06:56;;;;;;;3.90;2.67;;;19.80;64.00;20.50;101052.00;;;;5008174;28;20213;-47
2023/09/15 09:09:23;;;;;;;4.30;2.30;;;19.80;64.10;20.50;101052.00;;;;4992112;28;20205;-47
2023/09/15 09:11:49;;;;;;;4.67;2.70;;;19.90;64.90;20.50;101052.00;;;;4992014;28;20682;-48
2023/09/15 09:14:15;;;;;;;4.63;2.83;;;19.80;64.90;20.50;101039.00;;;;4991952;28;20186;-47
2023/09/15 09:16:44;;;;;;;4.87;2.60;;;19.80;65.00;20.50;101054.00;;;;5008060;28;20290;-47
2023/09/15 09:19:10;;;;;;;3.53;2.63;;;19.70;64.80;20.50;101044.00;;;;4992208;28;20230;-47
2023/09/15 09:21:36;;;;;;;3.70;2.50;;;19.70;64.60;20.50;101054.00;;;;5009298;28;20551;-48
2023/09/15 09:24:02;;;;;;;5.67;2.70;;;19.70;64.50;20.50;101059.00;;;;5006983;28;20265;-48
2023/09/15 09:26:28;;;;;;;2.80;2.40;;;19.60;64.90;20.50;101051.00;;;;5009575;28;20212;-47
2023/09/15 09:28:57;;;;;;;4.43;2.60;;;19.70;64.50;20.50;101057.00;;;;5007861;28;20198;-48
2023/09/15 09:31:25;;;;;;;3.27;2.60;;;19.70;65.00;20.50;101053.00;;;;5009083;28;20210;-48
2023/09/15 09:33:54;;;;;;;3.57;2.50;;;19.70;64.80;20.50;101049.00;;;;5004434;28;20677;-48
2023/09/15 09:36:20;;;;;;;3.50;2.60;;;19.80;64.90;20.50;101049.00;;;;5008669;28;20183;-48
2023/09/15 09:38:48;;;;;;;4.00;2.70;;;19.80;64.80;20.50;101048.00;;;;5009261;28;20665;-48
2023/09/15 09:41:15;;;;;;;10.40;2.70;;;19.80;65.50;20.60;101036.00;;;;5003978;28;20184;-47
2023/09/15 09:43:43;;;;;;;10.93;3.27;;;19.90;65.40;20.60;101042.00;;;;4990593;28;20191;-48
2023/09/15 09:46:10;;;;;;;9.57;3.10;;;19.90;65.80;20.60;101039.00;;;;5007618;28;20282;-47
2023/09/15 09:48:38;;;;;;;6.23;3.13;;;19.90;66.20;20.60;101034.00;;;;5008396;28;20183;-47
2023/09/15 09:51:05;;;;;;;4.10;3.03;;;19.90;65.50;20.60;101035.00;;;;5007644;28;20269;-47
2023/09/15 09:53:33;;;;;;;6.37;3.17;;;19.90;64.90;20.60;101030.00;;;;5007172;28;20717;-48
2023/09/15 09:56:03;;;;;;;14.23;3.63;;;19.90;63.90;20.70;101042.00;;;;5008993;28;20187;-47
2023/09/15 09:58:29;;;;;;;10.03;3.27;;;19.90;67.10;20.70;101035.00;;;;5007300;28;20171;-47
2023/09/15 10:00:54;;;;;;;8.10;3.20;;;20.00;67.50;20.70;101015.00;;;;5007674;28;20242;-48
2023/09/15 10:03:21;;;;;;;5.43;3.10;;;20.00;67.80;20.70;101039.00;;;;5008527;28;20183;-48
2023/09/15 10:05:48;;;;;;;4.90;3.17;;;20.10;65.20;20.70;101042.00;;;;5006280;28;20259;-48
2023/09/15 10:08:14;;;;;;;9.57;3.53;;;20.10;63.30;20.80;101021.00;;;;5007323;28;20700;-48
2023/09/15 10:10:43;;;;;;;4.53;3.10;;;20.10;67.00;20.80;101036.00;;;;5007625;28;20221;-47
2023/09/15 10:13:16;;;;;;;4.67;3.03;;;20.10;63.30;20.80;101021.00;;;;5007908;28;20198;-48
2023/09/15 10:15:42;;;;;;;4.57;2.90;;;20.10;62.10;20.80;101028.00;;;;5007473;28;20184;-48
2023/09/15 10:18:12;;;;;;;4.17;2.67;;;20.20;62.40;20.80;101016.00;;;;5008287;28;20229;-47
2023/09/15 10:20:47;;;;;;;7.30;3.17;;;20.10;62.60;20.90;101016.00;;;;4975027;28;20208;-47
2023/09/15 10:23:13;;;;;;;3.30;2.80;;;20.20;66.20;20.90;101004.00;;;;5007666;28;20294;-48
2023/09/15 10:25:52;;;;;;;3.90;2.57;;;20.30;64.10;20.90;101012.00;;;;5007240;28;20804;-47
2023/09/15 10:28:19;;;;;;;5.50;2.83;;;20.30;64.80;20.90;101017.00;;;;5002762;28;20194;-47
2023/09/15 10:30:45;;;;;;;4.87;3.03;;;20.30;66.00;20.90;101010.00;;;;5008149;28;20210;-48
2023/09/15 10:33:11;;;;;;;2.90;2.67;;;20.30;64.80;21.00;101007.00;;;;5007138;28;20188;-47
2023/09/15 10:35:43;;;;;;;4.00;2.80;;;20.30;66.00;21.00;101008.00;;;;5008674;28;20655;-47
2023/09/15 10:38:09;;;;;;;3.20;2.90;;;20.40;66.80;21.00;101003.00;;;;5025684;28;20187;-47
2023/09/15 10:40:49;;;;;;;3.60;2.70;;;20.40;64.40;21.10;100994.00;;;;5011152;28;20207;-47
2023/09/15 10:43:17;;;;;;;2.90;2.60;;;20.40;63.50;21.10;100997.00;;;;5008033;28;20645;-47
2023/09/15 10:46:04;;;;;;;3.43;2.70;;;20.50;63.10;21.20;100995.00;;;;5007976;28;20627;-47